sensor_id;sensor_type;location;lat;lon;timestamp;P1;durP1;ratioP1;P2;durP2;ratioP2
4839;SDS011;2434;48.486;7.964;2023-06-10T00:00:44;7.20;;;5.30;;
4839;SDS011;2434;48.486;7.964;2023-06-10T00:03:12;8.50;;;5.53;;
4839;SDS011;2434;48.486;7.964;2023-06-10T00:05:41;8.97;;;5.80;;
4839;SDS011;2434;48.486;7.964;2023-06-10T00:08:10;6.63;;;4.87;;
4839;SDS011;2434;48.486;7.964;2023-06-10T00:10:38;6.50;;;5.57;;
4839;SDS011;2434;48.486;7.964;2023-06-10T00:13:08;6.97;;;5.43;;
4839;SDS011;2434;48.486;7.964;2023-06-10T00:15:37;8.07;;;4.97;;
4839;SDS011;2434;48.486;7.964;2023-06-10T00:18:06;12.93;;;5.80;;
4839;SDS011;2434;48.486;7.964;2023-06-10T00:20:36;6.60;;;5.50;;
4839;SDS011;2434;48.486;7.964;2023-06-10T00:23:05;7.33;;;5.33;;
4839;SDS011;2434;48.486;7.964;2023-06-10T00:25:35;10.70;;;5.80;;
4839;SDS011;2434;48.486;7.964;2023-06-10T00:28:03;6.43;;;4.80;;
4839;SDS011;2434;48.486;7.964;2023-06-10T00:30:33;6.60;;;5.60;;
4839;SDS011;2434;48.486;7.964;2023-06-10T00:33:01;6.20;;;5.53;;
4839;SDS011;2434;48.486;7.964;2023-06-10T00:35:33;8.50;;;5.40;;
4839;SDS011;2434;48.486;7.964;2023-06-10T00:38:02;5.90;;;5.17;;
4839;SDS011;2434;48.486;7.964;2023-06-10T00:40:30;7.20;;;5.50;;
4839;SDS011;2434;48.486;7.964;2023-06-10T00:42:58;5.90;;;4.93;;
4839;SDS011;2434;48.486;7.964;2023-06-10T00:45:27;6.90;;;5.57;;
4839;SDS011;2434;48.486;7.964;2023-06-10T00:47:58;5.97;;;5.37;;
4839;SDS011;2434;48.486;7.964;2023-06-10T00:50:27;6.93;;;5.77;;
4839;SDS011;2434;48.486;7.964;2023-06-10T00:52:58;6.30;;;5.70;;
4839;SDS011;2434;48.486;7.964;2023-06-10T00:55:27;5.70;;;5.10;;
4839;SDS011;2434;48.486;7.964;2023-06-10T00:57:55;7.40;;;5.70;;
4839;SDS011;2434;48.486;7.964;2023-06-10T01:00:24;9.37;;;5.90;;
4839;SDS011;2434;48.486;7.964;2023-06-10T01:02:53;9.07;;;5.77;;
4839;SDS011;2434;48.486;7.964;2023-06-10T01:05:23;8.07;;;6.10;;
4839;SDS011;2434;48.486;7.964;2023-06-10T01:07:54;9.20;;;6.40;;
4839;SDS011;2434;48.486;7.964;2023-06-10T01:10:29;7.27;;;6.33;;
4839;SDS011;2434;48.486;7.964;2023-06-10T01:13:05;7.50;;;6.10;;
4839;SDS011;2434;48.486;7.964;2023-06-10T01:15:38;8.77;;;6.40;;
4839;SDS011;2434;48.486;7.964;2023-06-10T01:18:08;6.30;;;5.60;;
4839;SDS011;2434;48.486;7.964;2023-06-10T01:20:43;7.47;;;5.30;;
4839;SDS011;2434;48.486;7.964;2023-06-10T01:23:14;6.50;;;5.53;;
4839;SDS011;2434;48.486;7.964;2023-06-10T01:25:46;7.37;;;6.57;;
4839;SDS011;2434;48.486;7.964;2023-06-10T01:28:21;6.63;;;5.90;;
4839;SDS011;2434;48.486;7.964;2023-06-10T01:30:57;6.13;;;5.53;;
4839;SDS011;2434;48.486;7.964;2023-06-10T01:33:31;7.40;;;5.50;;
4839;SDS011;2434;48.486;7.964;2023-06-10T01:36:03;8.70;;;6.10;;
4839;SDS011;2434;48.486;7.964;2023-06-10T01:38:36;9.03;;;5.90;;
4839;SDS011;2434;48.486;7.964;2023-06-10T01:41:08;5.93;;;5.33;;
4839;SDS011;2434;48.486;7.964;2023-06-10T01:43:38;6.70;;;5.90;;
4839;SDS011;2434;48.486;7.964;2023-06-10T01:46:06;8.30;;;6.00;;
4839;SDS011;2434;48.486;7.964;2023-06-10T01:48:35;7.20;;;6.20;;
4839;SDS011;2434;48.486;7.964;2023-06-10T01:51:03;9.50;;;5.40;;
4839;SDS011;2434;48.486;7.964;2023-06-10T01:53:36;6.40;;;5.57;;
4839;SDS011;2434;48.486;7.964;2023-06-10T01:56:04;6.50;;;5.60;;
4839;SDS011;2434;48.486;7.964;2023-06-10T01:58:33;9.27;;;6.50;;
4839;SDS011;2434;48.486;7.964;2023-06-10T02:01:01;7.30;;;6.20;;
4839;SDS011;2434;48.486;7.964;2023-06-10T02:03:29;8.53;;;6.70;;
4839;SDS011;2434;48.486;7.964;2023-06-10T02:05:58;7.70;;;6.33;;
4839;SDS011;2434;48.486;7.964;2023-06-10T02:08:26;6.70;;;6.00;;
4839;SDS011;2434;48.486;7.964;2023-06-10T02:10:57;6.97;;;5.90;;
4839;SDS011;2434;48.486;7.964;2023-06-10T02:13:28;6.60;;;5.93;;
4839;SDS011;2434;48.486;7.964;2023-06-10T02:15:57;8.73;;;5.50;;
4839;SDS011;2434;48.486;7.964;2023-06-10T02:18:28;7.20;;;6.27;;
4839;SDS011;2434;48.486;7.964;2023-06-10T02:20:56;7.77;;;5.90;;
4839;SDS011;2434;48.486;7.964;2023-06-10T02:23:25;6.70;;;5.40;;
4839;SDS011;2434;48.486;7.964;2023-06-10T02:25:54;7.20;;;5.37;;
4839;SDS011;2434;48.486;7.964;2023-06-10T02:28:25;9.23;;;6.93;;
4839;SDS011;2434;48.486;7.964;2023-06-10T02:30:54;6.30;;;5.60;;
4839;SDS011;2434;48.486;7.964;2023-06-10T02:33:24;6.80;;;6.00;;
4839;SDS011;2434;48.486;7.964;2023-06-10T02:35:54;6.43;;;5.50;;
4839;SDS011;2434;48.486;7.964;2023-06-10T02:38:24;7.43;;;6.70;;
4839;SDS011;2434;48.486;7.964;2023-06-10T02:40:53;7.00;;;5.83;;
4839;SDS011;2434;48.486;7.964;2023-06-10T02:43:22;7.43;;;6.67;;
4839;SDS011;2434;48.486;7.964;2023-06-10T02:45:52;14.83;;;5.90;;
4839;SDS011;2434;48.486;7.964;2023-06-10T02:48:23;6.37;;;5.43;;
4839;SDS011;2434;48.486;7.964;2023-06-10T02:50:51;6.73;;;6.03;;
4839;SDS011;2434;48.486;7.964;2023-06-10T02:53:26;7.20;;;6.33;;
4839;SDS011;2434;48.486;7.964;2023-06-10T02:56:02;8.07;;;6.27;;
4839;SDS011;2434;48.486;7.964;2023-06-10T02:58:31;6.80;;;6.10;;
4839;SDS011;2434;48.486;7.964;2023-06-10T03:01:00;9.33;;;6.63;;
4839;SDS011;2434;48.486;7.964;2023-06-10T03:03:37;8.13;;;5.50;;
4839;SDS011;2434;48.486;7.964;2023-06-10T03:06:12;7.20;;;6.50;;
4839;SDS011;2434;48.486;7.964;2023-06-10T03:08:41;7.30;;;6.20;;
4839;SDS011;2434;48.486;7.964;2023-06-10T03:11:13;8.20;;;6.53;;
4839;SDS011;2434;48.486;7.964;2023-06-10T03:13:42;9.53;;;6.83;;
4839;SDS011;2434;48.486;7.964;2023-06-10T03:16:15;6.90;;;6.30;;
4839;SDS011;2434;48.486;7.964;2023-06-10T03:18:44;7.10;;;6.40;;
4839;SDS011;2434;48.486;7.964;2023-06-10T03:21:13;8.93;;;6.90;;
4839;SDS011;2434;48.486;7.964;2023-06-10T03:23:42;7.47;;;6.57;;
4839;SDS011;2434;48.486;7.964;2023-06-10T03:26:10;8.80;;;6.20;;
4839;SDS011;2434;48.486;7.964;2023-06-10T03:28:43;6.57;;;5.87;;
4839;SDS011;2434;48.486;7.964;2023-06-10T03:31:12;14.40;;;6.63;;
4839;SDS011;2434;48.486;7.964;2023-06-10T03:33:42;9.93;;;6.60;;
4839;SDS011;2434;48.486;7.964;2023-06-10T03:36:10;7.33;;;6.17;;
4839;SDS011;2434;48.486;7.964;2023-06-10T03:38:39;10.07;;;6.83;;
4839;SDS011;2434;48.486;7.964;2023-06-10T03:41:08;7.53;;;6.77;;
4839;SDS011;2434;48.486;7.964;2023-06-10T03:43:40;10.93;;;6.47;;
4839;SDS011;2434;48.486;7.964;2023-06-10T03:46:08;7.97;;;6.80;;
4839;SDS011;2434;48.486;7.964;2023-06-10T03:48:38;7.23;;;6.50;;
4839;SDS011;2434;48.486;7.964;2023-06-10T03:51:08;6.73;;;5.73;;
4839;SDS011;2434;48.486;7.964;2023-06-10T03:53:36;7.07;;;6.37;;
4839;SDS011;2434;48.486;7.964;2023-06-10T03:56:05;7.83;;;6.13;;
4839;SDS011;2434;48.486;7.964;2023-06-10T03:58:33;7.97;;;6.30;;
4839;SDS011;2434;48.486;7.964;2023-06-10T04:01:03;13.63;;;6.70;;
4839;SDS011;2434;48.486;7.964;2023-06-10T04:03:34;11.27;;;6.43;;
4839;SDS011;2434;48.486;7.964;2023-06-10T04:06:02;9.87;;;7.37;;
4839;SDS011;2434;48.486;7.964;2023-06-10T04:08:33;7.33;;;6.43;;
4839;SDS011;2434;48.486;7.964;2023-06-10T04:11:02;11.13;;;7.27;;
4839;SDS011;2434;48.486;7.964;2023-06-10T04:13:30;9.27;;;7.27;;
4839;SDS011;2434;48.486;7.964;2023-06-10T04:15:59;11.00;;;7.00;;
4839;SDS011;2434;48.486;7.964;2023-06-10T04:18:27;11.40;;;7.10;;
4839;SDS011;2434;48.486;7.964;2023-06-10T04:21:00;9.60;;;7.70;;
4839;SDS011;2434;48.486;7.964;2023-06-10T04:23:30;8.57;;;7.50;;
4839;SDS011;2434;48.486;7.964;2023-06-10T04:26:00;10.90;;;8.53;;
4839;SDS011;2434;48.486;7.964;2023-06-10T04:28:29;10.00;;;8.97;;
4839;SDS011;2434;48.486;7.964;2023-06-10T04:30:58;11.33;;;8.67;;
4839;SDS011;2434;48.486;7.964;2023-06-10T04:33:27;9.53;;;8.43;;
4839;SDS011;2434;48.486;7.964;2023-06-10T04:35:56;10.37;;;8.10;;
4839;SDS011;2434;48.486;7.964;2023-06-10T04:38:27;8.60;;;7.70;;
4839;SDS011;2434;48.486;7.964;2023-06-10T04:41:00;8.97;;;7.93;;
4839;SDS011;2434;48.486;7.964;2023-06-10T04:43:32;9.13;;;7.43;;
4839;SDS011;2434;48.486;7.964;2023-06-10T04:46:00;9.40;;;7.83;;
4839;SDS011;2434;48.486;7.964;2023-06-10T04:48:30;9.57;;;7.70;;
4839;SDS011;2434;48.486;7.964;2023-06-10T04:51:02;10.37;;;8.10;;
4839;SDS011;2434;48.486;7.964;2023-06-10T04:53:31;8.90;;;7.70;;
4839;SDS011;2434;48.486;7.964;2023-06-10T04:56:01;8.43;;;7.40;;
4839;SDS011;2434;48.486;7.964;2023-06-10T04:58:29;10.63;;;8.63;;
4839;SDS011;2434;48.486;7.964;2023-06-10T05:00:57;17.87;;;9.27;;
4839;SDS011;2434;48.486;7.964;2023-06-10T05:03:26;10.00;;;8.80;;
4839;SDS011;2434;48.486;7.964;2023-06-10T05:05:54;11.80;;;8.87;;
4839;SDS011;2434;48.486;7.964;2023-06-10T05:08:23;13.60;;;8.17;;
4839;SDS011;2434;48.486;7.964;2023-06-10T05:10:51;11.03;;;8.90;;
4839;SDS011;2434;48.486;7.964;2023-06-10T05:13:21;8.20;;;7.10;;
4839;SDS011;2434;48.486;7.964;2023-06-10T05:15:49;11.00;;;8.77;;
4839;SDS011;2434;48.486;7.964;2023-06-10T05:18:17;9.80;;;8.57;;
4839;SDS011;2434;48.486;7.964;2023-06-10T05:20:46;12.40;;;9.13;;
4839;SDS011;2434;48.486;7.964;2023-06-10T05:23:14;11.07;;;8.93;;
4839;SDS011;2434;48.486;7.964;2023-06-10T05:25:42;10.70;;;8.73;;
4839;SDS011;2434;48.486;7.964;2023-06-10T05:28:11;10.57;;;8.23;;
4839;SDS011;2434;48.486;7.964;2023-06-10T05:30:42;12.23;;;8.33;;
4839;SDS011;2434;48.486;7.964;2023-06-10T05:33:11;9.20;;;7.60;;
4839;SDS011;2434;48.486;7.964;2023-06-10T05:35:39;13.17;;;9.50;;
4839;SDS011;2434;48.486;7.964;2023-06-10T05:38:07;11.73;;;8.33;;
4839;SDS011;2434;48.486;7.964;2023-06-10T05:40:36;10.70;;;8.83;;
4839;SDS011;2434;48.486;7.964;2023-06-10T05:43:04;13.47;;;9.13;;
4839;SDS011;2434;48.486;7.964;2023-06-10T05:45:32;10.87;;;9.70;;
4839;SDS011;2434;48.486;7.964;2023-06-10T05:48:02;12.27;;;10.13;;
4839;SDS011;2434;48.486;7.964;2023-06-10T05:50:31;15.67;;;10.27;;
4839;SDS011;2434;48.486;7.964;2023-06-10T05:53:04;18.63;;;11.73;;
4839;SDS011;2434;48.486;7.964;2023-06-10T05:55:34;16.80;;;11.87;;
4839;SDS011;2434;48.486;7.964;2023-06-10T05:58:02;23.50;;;10.67;;
4839;SDS011;2434;48.486;7.964;2023-06-10T06:00:31;13.93;;;11.60;;
4839;SDS011;2434;48.486;7.964;2023-06-10T06:03:05;11.50;;;10.30;;
4839;SDS011;2434;48.486;7.964;2023-06-10T06:05:34;12.93;;;10.57;;
4839;SDS011;2434;48.486;7.964;2023-06-10T06:08:04;15.60;;;11.17;;
4839;SDS011;2434;48.486;7.964;2023-06-10T06:10:33;12.30;;;10.87;;
4839;SDS011;2434;48.486;7.964;2023-06-10T06:13:02;15.20;;;11.33;;
4839;SDS011;2434;48.486;7.964;2023-06-10T06:15:30;13.70;;;11.77;;
4839;SDS011;2434;48.486;7.964;2023-06-10T06:17:59;14.50;;;10.37;;
4839;SDS011;2434;48.486;7.964;2023-06-10T06:20:29;15.10;;;11.20;;
4839;SDS011;2434;48.486;7.964;2023-06-10T06:22:57;15.10;;;11.90;;
4839;SDS011;2434;48.486;7.964;2023-06-10T06:25:25;11.23;;;9.93;;
4839;SDS011;2434;48.486;7.964;2023-06-10T06:27:53;13.27;;;10.80;;
4839;SDS011;2434;48.486;7.964;2023-06-10T06:30:22;12.00;;;9.73;;
4839;SDS011;2434;48.486;7.964;2023-06-10T06:32:50;10.93;;;9.83;;
4839;SDS011;2434;48.486;7.964;2023-06-10T06:35:19;12.20;;;9.70;;
4839;SDS011;2434;48.486;7.964;2023-06-10T06:37:49;9.73;;;8.70;;
4839;SDS011;2434;48.486;7.964;2023-06-10T06:40:23;16.80;;;10.10;;
4839;SDS011;2434;48.486;7.964;2023-06-10T06:42:51;15.10;;;9.63;;
4839;SDS011;2434;48.486;7.964;2023-06-10T06:45:34;10.97;;;9.00;;
4839;SDS011;2434;48.486;7.964;2023-06-10T06:48:02;11.23;;;10.10;;
4839;SDS011;2434;48.486;7.964;2023-06-10T06:50:32;10.67;;;9.57;;
4839;SDS011;2434;48.486;7.964;2023-06-10T06:53:02;12.50;;;10.03;;
4839;SDS011;2434;48.486;7.964;2023-06-10T06:55:31;14.77;;;8.90;;
4839;SDS011;2434;48.486;7.964;2023-06-10T06:58:00;14.57;;;9.53;;
4839;SDS011;2434;48.486;7.964;2023-06-10T07:00:30;11.60;;;9.20;;
4839;SDS011;2434;48.486;7.964;2023-06-10T07:02:59;11.63;;;8.80;;
4839;SDS011;2434;48.486;7.964;2023-06-10T07:05:27;13.57;;;10.53;;
4839;SDS011;2434;48.486;7.964;2023-06-10T07:07:57;14.00;;;10.97;;
4839;SDS011;2434;48.486;7.964;2023-06-10T07:10:27;12.63;;;9.60;;
4839;SDS011;2434;48.486;7.964;2023-06-10T07:12:56;12.70;;;10.20;;
4839;SDS011;2434;48.486;7.964;2023-06-10T07:15:24;14.60;;;10.50;;
4839;SDS011;2434;48.486;7.964;2023-06-10T07:17:53;11.50;;;10.30;;
4839;SDS011;2434;48.486;7.964;2023-06-10T07:20:22;9.60;;;8.70;;
4839;SDS011;2434;48.486;7.964;2023-06-10T07:22:50;10.60;;;9.57;;
4839;SDS011;2434;48.486;7.964;2023-06-10T07:25:19;10.87;;;9.00;;
4839;SDS011;2434;48.486;7.964;2023-06-10T07:27:48;19.00;;;9.80;;
4839;SDS011;2434;48.486;7.964;2023-06-10T07:30:17;17.83;;;9.60;;
4839;SDS011;2434;48.486;7.964;2023-06-10T07:32:45;10.60;;;8.70;;
4839;SDS011;2434;48.486;7.964;2023-06-10T07:35:14;14.43;;;10.67;;
4839;SDS011;2434;48.486;7.964;2023-06-10T07:37:42;14.03;;;9.90;;
4839;SDS011;2434;48.486;7.964;2023-06-10T07:40:11;12.53;;;9.27;;
4839;SDS011;2434;48.486;7.964;2023-06-10T07:42:39;11.50;;;9.43;;
4839;SDS011;2434;48.486;7.964;2023-06-10T07:45:10;14.03;;;9.83;;
4839;SDS011;2434;48.486;7.964;2023-06-10T07:47:38;10.67;;;9.57;;
4839;SDS011;2434;48.486;7.964;2023-06-10T07:50:07;13.30;;;9.40;;
4839;SDS011;2434;48.486;7.964;2023-06-10T07:52:36;10.53;;;9.03;;
4839;SDS011;2434;48.486;7.964;2023-06-10T07:55:04;12.40;;;10.30;;
4839;SDS011;2434;48.486;7.964;2023-06-10T07:57:34;13.23;;;11.03;;
4839;SDS011;2434;48.486;7.964;2023-06-10T08:00:05;13.60;;;9.77;;
4839;SDS011;2434;48.486;7.964;2023-06-10T08:02:41;12.37;;;9.90;;
4839;SDS011;2434;48.486;7.964;2023-06-10T08:05:10;10.00;;;8.60;;
4839;SDS011;2434;48.486;7.964;2023-06-10T08:07:39;13.20;;;9.47;;
4839;SDS011;2434;48.486;7.964;2023-06-10T08:10:09;10.70;;;9.60;;
4839;SDS011;2434;48.486;7.964;2023-06-10T08:12:38;11.37;;;9.37;;
4839;SDS011;2434;48.486;7.964;2023-06-10T08:15:06;10.77;;;9.10;;
4839;SDS011;2434;48.486;7.964;2023-06-10T08:17:36;12.53;;;8.77;;
4839;SDS011;2434;48.486;7.964;2023-06-10T08:20:08;11.33;;;9.77;;
4839;SDS011;2434;48.486;7.964;2023-06-10T08:22:36;14.20;;;9.30;;
4839;SDS011;2434;48.486;7.964;2023-06-10T08:25:05;16.43;;;9.20;;
4839;SDS011;2434;48.486;7.964;2023-06-10T08:27:34;10.70;;;8.67;;
4839;SDS011;2434;48.486;7.964;2023-06-10T08:30:02;11.30;;;8.63;;
4839;SDS011;2434;48.486;7.964;2023-06-10T08:32:31;11.10;;;9.33;;
4839;SDS011;2434;48.486;7.964;2023-06-10T08:34:59;13.90;;;10.27;;
4839;SDS011;2434;48.486;7.964;2023-06-10T08:37:29;10.88;;;8.70;;
4839;SDS011;2434;48.486;7.964;2023-06-10T08:39:57;11.77;;;10.03;;
4839;SDS011;2434;48.486;7.964;2023-06-10T08:42:27;9.83;;;8.70;;
4839;SDS011;2434;48.486;7.964;2023-06-10T08:45:03;11.47;;;9.13;;
4839;SDS011;2434;48.486;7.964;2023-06-10T08:47:35;10.80;;;9.70;;
4839;SDS011;2434;48.486;7.964;2023-06-10T08:50:08;10.03;;;8.67;;
4839;SDS011;2434;48.486;7.964;2023-06-10T08:52:42;10.50;;;8.07;;
4839;SDS011;2434;48.486;7.964;2023-06-10T08:55:13;8.60;;;7.60;;
4839;SDS011;2434;48.486;7.964;2023-06-10T08:57:46;9.40;;;8.40;;
4839;SDS011;2434;48.486;7.964;2023-06-10T09:00:15;10.80;;;8.50;;
4839;SDS011;2434;48.486;7.964;2023-06-10T09:02:44;12.37;;;8.13;;
4839;SDS011;2434;48.486;7.964;2023-06-10T09:05:13;12.20;;;8.43;;
4839;SDS011;2434;48.486;7.964;2023-06-10T09:07:45;9.90;;;8.10;;
4839;SDS011;2434;48.486;7.964;2023-06-10T09:10:15;10.30;;;9.13;;
4839;SDS011;2434;48.486;7.964;2023-06-10T09:12:44;9.43;;;7.60;;
4839;SDS011;2434;48.486;7.964;2023-06-10T09:15:12;12.97;;;9.37;;
4839;SDS011;2434;48.486;7.964;2023-06-10T09:17:41;10.63;;;9.00;;
4839;SDS011;2434;48.486;7.964;2023-06-10T09:20:10;8.23;;;7.43;;
4839;SDS011;2434;48.486;7.964;2023-06-10T09:22:40;8.77;;;7.87;;
4839;SDS011;2434;48.486;7.964;2023-06-10T09:25:11;11.00;;;8.87;;
4839;SDS011;2434;48.486;7.964;2023-06-10T09:27:46;8.23;;;7.27;;
4839;SDS011;2434;48.486;7.964;2023-06-10T09:30:23;9.10;;;7.20;;
4839;SDS011;2434;48.486;7.964;2023-06-10T09:32:53;12.50;;;8.37;;
4839;SDS011;2434;48.486;7.964;2023-06-10T09:35:23;10.87;;;8.00;;
4839;SDS011;2434;48.486;7.964;2023-06-10T09:37:53;9.13;;;7.20;;
4839;SDS011;2434;48.486;7.964;2023-06-10T09:40:25;8.13;;;7.30;;
4839;SDS011;2434;48.486;7.964;2023-06-10T09:42:55;12.27;;;7.33;;
4839;SDS011;2434;48.486;7.964;2023-06-10T09:45:28;9.37;;;8.37;;
4839;SDS011;2434;48.486;7.964;2023-06-10T09:47:58;9.57;;;7.57;;
4839;SDS011;2434;48.486;7.964;2023-06-10T09:50:26;11.00;;;8.00;;
4839;SDS011;2434;48.486;7.964;2023-06-10T09:52:55;10.50;;;7.63;;
4839;SDS011;2434;48.486;7.964;2023-06-10T09:55:25;8.57;;;7.50;;
4839;SDS011;2434;48.486;7.964;2023-06-10T09:57:53;9.20;;;7.17;;
4839;SDS011;2434;48.486;7.964;2023-06-10T10:00:22;10.27;;;7.30;;
4839;SDS011;2434;48.486;7.964;2023-06-10T10:02:52;10.17;;;8.00;;
4839;SDS011;2434;48.486;7.964;2023-06-10T10:05:22;9.53;;;7.60;;
4839;SDS011;2434;48.486;7.964;2023-06-10T10:07:51;8.77;;;6.83;;
4839;SDS011;2434;48.486;7.964;2023-06-10T10:10:20;14.90;;;7.10;;
4839;SDS011;2434;48.486;7.964;2023-06-10T10:12:53;9.00;;;7.23;;
4839;SDS011;2434;48.486;7.964;2023-06-10T10:15:23;7.47;;;6.63;;
4839;SDS011;2434;48.486;7.964;2023-06-10T10:17:58;11.43;;;6.17;;
4839;SDS011;2434;48.486;7.964;2023-06-10T10:20:34;8.83;;;7.13;;
4839;SDS011;2434;48.486;7.964;2023-06-10T10:23:10;7.20;;;6.10;;
4839;SDS011;2434;48.486;7.964;2023-06-10T10:25:41;8.97;;;5.97;;
4839;SDS011;2434;48.486;7.964;2023-06-10T10:28:12;13.63;;;5.43;;
4839;SDS011;2434;48.486;7.964;2023-06-10T10:30:44;6.30;;;5.53;;
4839;SDS011;2434;48.486;7.964;2023-06-10T10:33:16;6.03;;;5.43;;
4839;SDS011;2434;48.486;7.964;2023-06-10T10:35:49;7.37;;;5.60;;
4839;SDS011;2434;48.486;7.964;2023-06-10T10:38:17;5.60;;;4.63;;
4839;SDS011;2434;48.486;7.964;2023-06-10T10:40:46;7.23;;;4.40;;
4839;SDS011;2434;48.486;7.964;2023-06-10T10:43:17;5.67;;;4.90;;
4839;SDS011;2434;48.486;7.964;2023-06-10T10:45:46;5.13;;;4.03;;
4839;SDS011;2434;48.486;7.964;2023-06-10T10:48:26;5.70;;;4.63;;
4839;SDS011;2434;48.486;7.964;2023-06-10T10:51:00;5.30;;;4.80;;
4839;SDS011;2434;48.486;7.964;2023-06-10T10:53:29;6.40;;;3.97;;
4839;SDS011;2434;48.486;7.964;2023-06-10T10:55:58;4.80;;;4.10;;
4839;SDS011;2434;48.486;7.964;2023-06-10T10:58:28;5.90;;;4.53;;
4839;SDS011;2434;48.486;7.964;2023-06-10T11:00:56;5.03;;;3.80;;
4839;SDS011;2434;48.486;7.964;2023-06-10T11:03:27;9.50;;;4.23;;
4839;SDS011;2434;48.486;7.964;2023-06-10T11:05:57;5.10;;;4.30;;
4839;SDS011;2434;48.486;7.964;2023-06-10T11:11:17;4.90;;;4.03;;
4839;SDS011;2434;48.486;7.964;2023-06-10T11:13:59;4.60;;;4.07;;
4839;SDS011;2434;48.486;7.964;2023-06-10T11:16:39;6.93;;;4.10;;
4839;SDS011;2434;48.486;7.964;2023-06-10T11:19:09;7.00;;;4.43;;
4839;SDS011;2434;48.486;7.964;2023-06-10T11:24:28;6.03;;;4.67;;
4839;SDS011;2434;48.486;7.964;2023-06-10T11:29:58;4.63;;;4.10;;
4839;SDS011;2434;48.486;7.964;2023-06-10T11:32:45;4.50;;;4.10;;
4839;SDS011;2434;48.486;7.964;2023-06-10T11:35:19;7.20;;;4.47;;
4839;SDS011;2434;48.486;7.964;2023-06-10T11:37:50;4.67;;;4.17;;
4839;SDS011;2434;48.486;7.964;2023-06-10T11:40:19;3.53;;;3.23;;
4839;SDS011;2434;48.486;7.964;2023-06-10T11:42:47;5.30;;;4.07;;
4839;SDS011;2434;48.486;7.964;2023-06-10T11:45:17;5.53;;;3.80;;
4839;SDS011;2434;48.486;7.964;2023-06-10T11:47:55;4.07;;;3.43;;
4839;SDS011;2434;48.486;7.964;2023-06-10T11:50:28;5.10;;;3.73;;
4839;SDS011;2434;48.486;7.964;2023-06-10T11:52:59;4.27;;;3.87;;
4839;SDS011;2434;48.486;7.964;2023-06-10T11:55:39;5.17;;;4.30;;
4839;SDS011;2434;48.486;7.964;2023-06-10T11:58:12;5.03;;;3.93;;
4839;SDS011;2434;48.486;7.964;2023-06-10T12:00:47;4.00;;;3.60;;
4839;SDS011;2434;48.486;7.964;2023-06-10T12:03:15;4.80;;;4.00;;
4839;SDS011;2434;48.486;7.964;2023-06-10T12:08:29;4.50;;;4.00;;
4839;SDS011;2434;48.486;7.964;2023-06-10T12:11:02;5.67;;;3.80;;
4839;SDS011;2434;48.486;7.964;2023-06-10T12:13:30;4.00;;;3.20;;
4839;SDS011;2434;48.486;7.964;2023-06-10T12:16:07;5.63;;;3.97;;
4839;SDS011;2434;48.486;7.964;2023-06-10T12:18:36;5.20;;;4.20;;
4839;SDS011;2434;48.486;7.964;2023-06-10T12:24:57;4.20;;;3.80;;
4839;SDS011;2434;48.486;7.964;2023-06-10T12:27:28;3.63;;;3.23;;
4839;SDS011;2434;48.486;7.964;2023-06-10T12:29:56;3.70;;;3.30;;
4839;SDS011;2434;48.486;7.964;2023-06-10T12:32:41;3.27;;;2.97;;
4839;SDS011;2434;48.486;7.964;2023-06-10T12:35:10;5.20;;;3.67;;
4839;SDS011;2434;48.486;7.964;2023-06-10T12:37:40;4.50;;;3.80;;
4839;SDS011;2434;48.486;7.964;2023-06-10T12:40:10;5.63;;;4.30;;
4839;SDS011;2434;48.486;7.964;2023-06-10T12:42:39;4.33;;;3.00;;
4839;SDS011;2434;48.486;7.964;2023-06-10T12:45:08;5.27;;;3.63;;
4839;SDS011;2434;48.486;7.964;2023-06-10T12:47:40;4.20;;;3.03;;
4839;SDS011;2434;48.486;7.964;2023-06-10T12:50:09;3.63;;;3.13;;
4839;SDS011;2434;48.486;7.964;2023-06-10T12:52:39;4.13;;;3.63;;
4839;SDS011;2434;48.486;7.964;2023-06-10T12:55:08;5.50;;;3.80;;
4839;SDS011;2434;48.486;7.964;2023-06-10T12:57:38;5.17;;;3.77;;
4839;SDS011;2434;48.486;7.964;2023-06-10T13:00:17;4.73;;;3.80;;
4839;SDS011;2434;48.486;7.964;2023-06-10T13:02:47;5.13;;;4.43;;
4839;SDS011;2434;48.486;7.964;2023-06-10T13:05:17;6.70;;;4.53;;
4839;SDS011;2434;48.486;7.964;2023-06-10T13:07:46;6.03;;;4.10;;
4839;SDS011;2434;48.486;7.964;2023-06-10T13:10:14;7.67;;;4.33;;
4839;SDS011;2434;48.486;7.964;2023-06-10T13:12:44;6.43;;;4.70;;
4839;SDS011;2434;48.486;7.964;2023-06-10T13:15:14;5.70;;;4.07;;
4839;SDS011;2434;48.486;7.964;2023-06-10T13:17:44;12.10;;;4.20;;
4839;SDS011;2434;48.486;7.964;2023-06-10T13:20:18;5.93;;;4.27;;
4839;SDS011;2434;48.486;7.964;2023-06-10T13:22:47;7.00;;;4.00;;
4839;SDS011;2434;48.486;7.964;2023-06-10T13:25:16;12.40;;;4.67;;
4839;SDS011;2434;48.486;7.964;2023-06-10T13:27:44;6.03;;;4.17;;
4839;SDS011;2434;48.486;7.964;2023-06-10T13:30:13;5.23;;;4.37;;
4839;SDS011;2434;48.486;7.964;2023-06-10T13:32:41;8.93;;;4.70;;
4839;SDS011;2434;48.486;7.964;2023-06-10T13:35:10;4.90;;;3.93;;
4839;SDS011;2434;48.486;7.964;2023-06-10T13:37:40;13.60;;;4.37;;
4839;SDS011;2434;48.486;7.964;2023-06-10T13:40:09;5.73;;;3.73;;
4839;SDS011;2434;48.486;7.964;2023-06-10T13:42:38;4.53;;;4.13;;
4839;SDS011;2434;48.486;7.964;2023-06-10T13:45:06;6.00;;;4.27;;
4839;SDS011;2434;48.486;7.964;2023-06-10T13:47:36;5.40;;;4.30;;
4839;SDS011;2434;48.486;7.964;2023-06-10T13:50:06;5.70;;;3.27;;
4839;SDS011;2434;48.486;7.964;2023-06-10T13:52:35;4.63;;;3.60;;
4839;SDS011;2434;48.486;7.964;2023-06-10T13:55:05;4.60;;;4.20;;
4839;SDS011;2434;48.486;7.964;2023-06-10T13:57:35;10.60;;;4.07;;
4839;SDS011;2434;48.486;7.964;2023-06-10T14:00:03;3.97;;;3.57;;
4839;SDS011;2434;48.486;7.964;2023-06-10T14:02:33;5.80;;;4.30;;
4839;SDS011;2434;48.486;7.964;2023-06-10T14:05:01;5.83;;;3.80;;
4839;SDS011;2434;48.486;7.964;2023-06-10T14:07:30;4.60;;;3.73;;
4839;SDS011;2434;48.486;7.964;2023-06-10T14:09:58;6.40;;;4.10;;
4839;SDS011;2434;48.486;7.964;2023-06-10T14:12:28;4.23;;;3.70;;
4839;SDS011;2434;48.486;7.964;2023-06-10T14:14:57;5.07;;;4.20;;
4839;SDS011;2434;48.486;7.964;2023-06-10T14:17:25;4.80;;;4.17;;
4839;SDS011;2434;48.486;7.964;2023-06-10T14:19:54;4.20;;;3.80;;
4839;SDS011;2434;48.486;7.964;2023-06-10T14:22:22;6.03;;;3.97;;
4839;SDS011;2434;48.486;7.964;2023-06-10T14:24:51;4.93;;;4.00;;
4839;SDS011;2434;48.486;7.964;2023-06-10T14:27:19;5.70;;;3.90;;
4839;SDS011;2434;48.486;7.964;2023-06-10T14:29:49;3.73;;;3.43;;
4839;SDS011;2434;48.486;7.964;2023-06-10T14:32:17;11.93;;;4.43;;
4839;SDS011;2434;48.486;7.964;2023-06-10T14:34:46;4.60;;;3.53;;
4839;SDS011;2434;48.486;7.964;2023-06-10T14:37:15;4.67;;;4.07;;
4839;SDS011;2434;48.486;7.964;2023-06-10T14:39:43;5.20;;;3.63;;
4839;SDS011;2434;48.486;7.964;2023-06-10T14:42:11;4.70;;;3.60;;
4839;SDS011;2434;48.486;7.964;2023-06-10T14:44:39;5.17;;;3.47;;
4839;SDS011;2434;48.486;7.964;2023-06-10T14:47:10;4.70;;;3.43;;
4839;SDS011;2434;48.486;7.964;2023-06-10T14:49:38;3.60;;;3.30;;
4839;SDS011;2434;48.486;7.964;2023-06-10T14:52:08;3.90;;;3.50;;
4839;SDS011;2434;48.486;7.964;2023-06-10T14:54:36;3.90;;;3.30;;
4839;SDS011;2434;48.486;7.964;2023-06-10T14:57:05;5.87;;;3.83;;
4839;SDS011;2434;48.486;7.964;2023-06-10T14:59:34;5.60;;;3.90;;
4839;SDS011;2434;48.486;7.964;2023-06-10T15:02:02;5.67;;;4.10;;
4839;SDS011;2434;48.486;7.964;2023-06-10T15:04:32;6.70;;;4.30;;
4839;SDS011;2434;48.486;7.964;2023-06-10T15:07:01;5.30;;;3.83;;
4839;SDS011;2434;48.486;7.964;2023-06-10T15:09:30;7.93;;;4.27;;
4839;SDS011;2434;48.486;7.964;2023-06-10T15:11:58;6.50;;;4.27;;
4839;SDS011;2434;48.486;7.964;2023-06-10T15:14:27;5.03;;;4.53;;
4839;SDS011;2434;48.486;7.964;2023-06-10T15:16:55;6.83;;;4.50;;
4839;SDS011;2434;48.486;7.964;2023-06-10T15:19:25;4.23;;;3.73;;
4839;SDS011;2434;48.486;7.964;2023-06-10T15:21:55;5.10;;;4.10;;
4839;SDS011;2434;48.486;7.964;2023-06-10T15:24:24;5.50;;;4.53;;
4839;SDS011;2434;48.486;7.964;2023-06-10T15:26:52;5.90;;;4.53;;
4839;SDS011;2434;48.486;7.964;2023-06-10T15:29:21;7.57;;;4.60;;
4839;SDS011;2434;48.486;7.964;2023-06-10T15:31:49;4.67;;;4.00;;
4839;SDS011;2434;48.486;7.964;2023-06-10T15:34:17;5.43;;;4.00;;
4839;SDS011;2434;48.486;7.964;2023-06-10T15:36:46;5.27;;;4.10;;
4839;SDS011;2434;48.486;7.964;2023-06-10T15:39:15;3.97;;;3.57;;
4839;SDS011;2434;48.486;7.964;2023-06-10T15:41:45;4.50;;;4.10;;